createdAt,value
2022-10-09T00:01:32.163Z,0.00
2022-10-09T00:02:30.036Z,0.00
2022-10-09T00:03:31.999Z,0.00
2022-10-09T00:04:32.324Z,0.00
2022-10-09T00:05:32.357Z,0.00
2022-10-09T00:06:33.030Z,0.00
2022-10-09T00:07:31.285Z,0.00
2022-10-09T00:08:33.483Z,0.00
2022-10-09T00:09:33.681Z,0.00
2022-10-09T00:10:32.189Z,0.00
2022-10-09T00:11:34.366Z,0.00
2022-10-09T00:12:34.545Z,0.00
2022-10-09T00:13:33.042Z,0.00
2022-10-09T00:14:33.341Z,0.00
2022-10-09T00:15:36.983Z,0.00
2022-10-09T00:16:35.761Z,0.00
2022-10-09T00:17:35.903Z,0.00
2022-10-09T00:18:34.522Z,0.00
2022-10-09T00:19:34.815Z,0.00
2022-10-09T00:20:35.108Z,0.00
2022-10-09T00:21:37.591Z,0.00
2022-10-09T00:22:37.282Z,0.00
2022-10-09T00:23:36.158Z,0.00
2022-10-09T00:24:36.289Z,0.00
2022-10-09T00:25:36.640Z,0.00
2022-10-09T00:26:36.900Z,0.00
2022-10-09T00:27:39.000Z,0.00
2022-10-09T00:28:38.854Z,0.00
2022-10-09T00:29:37.642Z,0.00
2022-10-09T00:30:37.989Z,0.00
2022-10-09T00:31:40.102Z,0.00
2022-10-09T00:32:40.291Z,0.00
2022-10-09T00:33:40.467Z,0.00
2022-10-09T00:34:40.663Z,0.00
2022-10-09T00:35:39.396Z,0.00
2022-10-09T00:36:39.714Z,0.00
2022-10-09T00:37:40.020Z,0.00
2022-10-09T00:38:42.207Z,0.00
2022-10-09T00:39:42.414Z,0.00
2022-10-09T00:40:40.832Z,0.00
2022-10-09T00:41:42.995Z,0.00
2022-10-09T00:42:41.356Z,0.00
2022-10-09T00:43:43.534Z,0.00
2022-10-09T00:44:43.722Z,0.00
2022-10-09T00:45:43.706Z,0.00
2022-10-09T00:46:42.549Z,0.00
2022-10-09T00:47:42.851Z,0.00
2022-10-09T00:48:43.148Z,0.00
2022-10-09T00:49:45.327Z,0.00
2022-10-09T00:50:44.518Z,0.00
2022-10-09T00:51:45.084Z,0.00
2022-10-09T00:52:44.324Z,0.00
2022-10-09T00:53:44.610Z,0.00
2022-10-09T00:54:46.792Z,0.00
2022-10-09T00:55:46.202Z,0.00
2022-10-09T00:56:45.429Z,0.00
2022-10-09T00:57:45.716Z,0.00
2022-10-09T00:58:46.004Z,0.00
2022-10-09T00:59:48.185Z,0.00
2022-10-09T01:00:47.541Z,0.00
2022-10-09T01:01:48.041Z,0.00
2022-10-09T01:02:47.523Z,0.00
2022-10-09T01:03:50.290Z,0.00
2022-10-09T01:04:50.481Z,0.00
2022-10-09T01:05:48.966Z,0.00
2022-10-09T01:06:49.123Z,0.00
2022-10-09T01:07:49.539Z,0.00
2022-10-09T01:08:50.775Z,0.00
2022-10-09T01:09:49.144Z,0.00
2022-10-09T01:10:50.411Z,0.00
2022-10-09T01:11:49.791Z,0.00
2022-10-09T01:12:50.290Z,0.00
2022-10-09T01:13:52.237Z,0.00
2022-10-09T01:14:50.606Z,0.00
2022-10-09T01:15:51.912Z,0.00
2022-10-09T01:16:53.119Z,0.00
2022-10-09T01:17:51.493Z,0.00
2022-10-09T01:18:54.623Z,0.00
2022-10-09T01:19:54.805Z,0.00
2022-10-09T01:20:55.009Z,0.00
2022-10-09T01:21:54.242Z,0.00
2022-10-09T01:22:52.979Z,0.00
2022-10-09T01:23:53.292Z,0.00
2022-10-09T01:24:53.589Z,0.00
2022-10-09T01:25:57.242Z,0.00
2022-10-09T01:26:57.433Z,0.00
2022-10-09T01:27:54.473Z,0.00
2022-10-09T01:28:54.760Z,0.00
2022-10-09T01:29:55.050Z,0.00
2022-10-09T01:30:56.316Z,0.00
2022-10-09T01:31:56.645Z,0.00
2022-10-09T01:32:56.871Z,0.00
2022-10-09T01:33:56.234Z,0.00
2022-10-09T01:34:58.431Z,0.00
2022-10-09T01:35:57.777Z,0.00
2022-10-09T01:36:59.004Z,0.00
2022-10-09T01:37:58.183Z,0.00
2022-10-09T01:38:58.605Z,0.00
2022-10-09T01:39:58.170Z,0.00
2022-10-09T01:40:59.172Z,0.00
2022-10-09T01:42:00.385Z,0.00
2022-10-09T01:42:58.635Z,0.00
2022-10-09T01:43:58.930Z,0.00
2022-10-09T01:45:01.110Z,0.00
2022-10-09T01:46:00.551Z,0.00
2022-10-09T01:46:59.723Z,0.00
2022-10-09T01:48:01.903Z,0.00
2022-10-09T01:49:02.087Z,0.00
2022-10-09T01:50:01.287Z,0.00
2022-10-09T01:51:01.876Z,0.00
2022-10-09T01:52:01.214Z,0.00
2022-10-09T01:53:03.410Z,0.00
2022-10-09T01:54:03.585Z,0.00
2022-10-09T01:55:03.777Z,0.00
2022-10-09T01:56:03.366Z,0.00
2022-10-09T01:57:04.990Z,0.00
2022-10-09T01:58:02.991Z,0.00
2022-10-09T01:59:03.287Z,0.00
2022-10-09T02:00:05.485Z,0.00
2022-10-09T02:01:05.658Z,0.00
2022-10-09T02:02:05.997Z,0.00
2022-10-09T02:03:06.079Z,0.00
2022-10-09T02:04:04.821Z,0.00
2022-10-09T02:05:07.137Z,0.00
2022-10-09T02:06:07.218Z,0.00
2022-10-09T02:07:05.734Z,0.00
2022-10-09T02:08:07.901Z,0.00
2022-10-09T02:09:06.267Z,0.00
2022-10-09T02:10:08.449Z,0.00
2022-10-09T02:11:08.626Z,0.00
2022-10-09T02:12:07.127Z,0.00
2022-10-09T02:13:09.317Z,0.00
2022-10-09T02:14:07.683Z,0.00
2022-10-09T02:15:08.300Z,0.00
2022-10-09T02:16:10.216Z,0.00
2022-10-09T02:17:08.566Z,0.00
2022-10-09T02:18:08.880Z,0.00
2022-10-09T02:19:09.165Z,0.00
2022-10-09T02:20:09.477Z,0.00
2022-10-09T02:21:09.793Z,0.00
2022-10-09T02:22:11.972Z,0.00
2022-10-09T02:23:10.356Z,0.00
2022-10-09T02:24:10.683Z,0.00
2022-10-09T02:25:10.981Z,0.00
2022-10-09T02:26:13.134Z,0.00
2022-10-09T02:27:11.536Z,0.00
2022-10-09T02:28:11.923Z,0.00
2022-10-09T02:29:12.070Z,0.00
2022-10-09T02:30:13.157Z,0.00
2022-10-09T02:31:13.681Z,0.00
2022-10-09T02:32:14.812Z,0.00
2022-10-09T02:33:13.206Z,0.00
2022-10-09T02:34:13.542Z,0.00
2022-10-09T02:35:14.724Z,0.00
2022-10-09T02:36:16.054Z,0.00
2022-10-09T02:37:16.242Z,0.00
2022-10-09T02:38:16.417Z,0.00
2022-10-09T02:39:16.600Z,0.00
2022-10-09T02:40:16.352Z,0.00
2022-10-09T02:41:15.590Z,0.00
2022-10-09T02:42:15.884Z,0.00
2022-10-09T02:43:16.194Z,0.00
2022-10-09T02:44:18.375Z,0.00
2022-10-09T02:45:18.700Z,0.00
2022-10-09T02:46:17.107Z,0.00
2022-10-09T02:47:17.364Z,0.00
2022-10-09T02:48:17.658Z,0.00
2022-10-09T02:49:19.848Z,0.00
2022-10-09T02:50:18.324Z,0.00
2022-10-09T02:51:20.421Z,0.00
2022-10-09T02:52:20.601Z,0.00
2022-10-09T02:53:19.126Z,0.00
2022-10-09T02:54:19.426Z,0.00
2022-10-09T02:55:22.591Z,0.00
2022-10-09T02:56:19.971Z,0.00
2022-10-09T02:57:22.131Z,0.00
2022-10-09T02:58:22.317Z,0.00
2022-10-09T02:59:20.803Z,0.00
2022-10-09T03:00:22.995Z,0.00
2022-10-09T03:01:23.174Z,0.00
2022-10-09T03:02:23.453Z,0.00
2022-10-09T03:03:23.521Z,0.00
2022-10-09T03:04:24.179Z,0.00
2022-10-09T03:05:25.316Z,0.00
2022-10-09T03:06:23.776Z,0.00
2022-10-09T03:07:23.146Z,0.00
2022-10-09T03:08:25.325Z,0.00
2022-10-09T03:09:26.716Z,0.00
2022-10-09T03:10:26.719Z,0.00
2022-10-09T03:11:24.213Z,0.00
2022-10-09T03:12:24.505Z,0.00
2022-10-09T03:13:27.648Z,0.00
2022-10-09T03:14:26.886Z,0.00
2022-10-09T03:15:28.059Z,0.00
2022-10-09T03:16:25.945Z,0.00
2022-10-09T03:17:27.002Z,0.00
2022-10-09T03:18:29.685Z,0.00
2022-10-09T03:19:27.400Z,0.00
2022-10-09T03:20:27.066Z,0.00
2022-10-09T03:21:29.402Z,0.00
2022-10-09T03:22:28.378Z,0.00
2022-10-09T03:23:29.606Z,0.00
2022-10-09T03:24:28.937Z,0.00
2022-10-09T03:25:28.353Z,0.00
2022-10-09T03:26:30.512Z,0.00
2022-10-09T03:27:31.414Z,0.00
2022-10-09T03:28:29.101Z,0.00
2022-10-09T03:29:32.697Z,0.00
2022-10-09T03:30:29.814Z,0.00
2022-10-09T03:31:52.477Z,0.00
2022-10-09T03:32:32.067Z,0.00
2022-10-09T03:33:31.371Z,0.00
2022-10-09T03:34:30.713Z,0.00
2022-10-09T03:35:31.996Z,0.00
2022-10-09T03:36:33.235Z,0.00
2022-10-09T03:37:32.569Z,0.00
2022-10-09T03:38:32.747Z,0.00
2022-10-09T03:39:33.160Z,0.00
2022-10-09T03:40:33.482Z,0.00
2022-10-09T03:41:33.825Z,0.00
2022-10-09T03:42:35.209Z,0.00
2022-10-09T03:43:33.446Z,0.00
2022-10-09T03:44:35.731Z,0.00
2022-10-09T03:45:34.887Z,0.00
2022-10-09T03:46:34.450Z,0.00
2022-10-09T03:47:35.564Z,0.00
2022-10-09T03:48:35.042Z,0.00
2022-10-09T03:49:37.228Z,0.00
2022-10-09T03:50:38.419Z,0.00
2022-10-09T03:51:37.629Z,0.00
2022-10-09T03:52:37.822Z,0.00
2022-10-09T03:53:38.508Z,0.00
2022-10-09T03:54:38.711Z,0.00
2022-10-09T03:55:39.912Z,0.00
2022-10-09T03:56:37.428Z,0.00
2022-10-09T03:57:39.640Z,0.00
2022-10-09T03:58:39.838Z,0.00
2022-10-09T03:59:40.229Z,0.00
2022-10-09T04:00:41.244Z,0.00
2022-10-09T04:01:39.862Z,0.00
2022-10-09T04:02:41.221Z,0.00
2022-10-09T04:03:40.344Z,0.00
2022-10-09T04:04:41.548Z,0.00
2022-10-09T04:05:41.743Z,0.00
2022-10-09T04:06:40.142Z,0.00
2022-10-09T04:07:40.429Z,0.00
2022-10-09T04:08:42.634Z,0.00
2022-10-09T04:09:41.799Z,0.00
2022-10-09T04:10:41.284Z,0.00
2022-10-09T04:11:41.586Z,0.00
2022-10-09T04:12:43.819Z,0.00
2022-10-09T04:13:42.187Z,0.00
2022-10-09T04:14:44.364Z,0.00
2022-10-09T04:15:42.968Z,0.00
2022-10-09T04:16:43.022Z,0.00
2022-10-09T04:17:43.296Z,0.00
2022-10-09T04:18:43.663Z,0.00
2022-10-09T04:19:45.841Z,0.00
2022-10-09T04:20:44.101Z,0.00
2022-10-09T04:21:46.294Z,0.00
2022-10-09T04:22:44.653Z,0.00
2022-10-09T04:23:45.829Z,0.00
2022-10-09T04:24:47.175Z,0.00
2022-10-09T04:25:45.411Z,0.00
2022-10-09T04:26:45.704Z,0.00
2022-10-09T04:27:47.881Z,0.00
2022-10-09T04:28:47.184Z,0.00
2022-10-09T04:29:46.566Z,0.00
2022-10-09T04:30:46.854Z,0.00
2022-10-09T04:31:49.141Z,0.00
2022-10-09T04:32:47.764Z,0.00
2022-10-09T04:33:50.502Z,0.00
2022-10-09T04:34:49.898Z,0.00
2022-10-09T04:35:48.386Z,0.00
2022-10-09T04:36:48.662Z,0.00
2022-10-09T04:37:48.939Z,0.00
2022-10-09T04:38:50.021Z,0.00
2022-10-09T04:39:51.422Z,0.00
2022-10-09T04:40:49.794Z,0.00
2022-10-09T04:41:50.079Z,0.00
2022-10-09T04:42:52.264Z,0.00
2022-10-09T04:43:51.698Z,0.00
2022-10-09T04:44:52.938Z,0.00
2022-10-09T04:45:53.178Z,0.00
2022-10-09T04:46:51.501Z,0.00
2022-10-09T04:47:51.799Z,0.00
2022-10-09T04:48:53.153Z,0.00
2022-10-09T04:49:54.355Z,0.00
2022-10-09T04:50:52.595Z,0.00
2022-10-09T04:51:52.898Z,0.00
2022-10-09T04:52:53.188Z,0.00
2022-10-09T04:53:56.177Z,0.00
2022-10-09T04:54:57.634Z,0.00
2022-10-09T04:55:54.038Z,0.00
2022-10-09T04:56:54.315Z,0.00
2022-10-09T04:57:56.522Z,0.00
2022-10-09T04:58:55.789Z,0.00
2022-10-09T04:59:55.940Z,0.00
2022-10-09T05:00:57.453Z,0.00
2022-10-09T05:01:55.803Z,0.00
2022-10-09T05:02:56.057Z,4.00
2022-10-09T05:03:57.348Z,4.00
2022-10-09T05:04:56.716Z,0.00
2022-10-09T05:05:58.898Z,4.00
2022-10-09T05:06:57.285Z,4.00
2022-10-09T05:07:57.566Z,4.00
2022-10-09T05:09:01.254Z,4.00
2022-10-09T05:09:58.130Z,4.00
2022-10-09T05:11:01.789Z,4.00
2022-10-09T05:12:01.965Z,8.00
2022-10-09T05:12:59.817Z,8.00
2022-10-09T05:14:00.230Z,8.00
2022-10-09T05:14:59.596Z,12.00
2022-10-09T05:16:01.795Z,16.00
2022-10-09T05:17:13.560Z,20.00
2022-10-09T05:18:02.405Z,24.00
2022-10-09T05:19:01.795Z,24.00
2022-10-09T05:20:01.972Z,32.00
2022-10-09T05:21:03.228Z,36.00
2022-10-09T05:22:03.409Z,44.00
2022-10-09T05:23:01.918Z,52.00
2022-10-09T05:24:07.179Z,60.00
2022-10-09T05:25:04.544Z,72.00
2022-10-09T05:26:03.684Z,80.00
2022-10-09T05:27:05.021Z,96.00
2022-10-09T05:28:05.358Z,108.00
2022-10-09T05:29:05.434Z,128.00
2022-10-09T05:30:04.846Z,148.00
2022-10-09T05:31:04.210Z,164.00
2022-10-09T05:32:06.467Z,184.00
2022-10-09T05:33:06.559Z,204.00
2022-10-09T05:34:07.735Z,224.00
2022-10-09T05:35:05.386Z,244.00
2022-10-09T05:36:05.756Z,264.00
2022-10-09T05:37:07.927Z,288.00
2022-10-09T05:38:06.295Z,312.00
2022-10-09T05:39:07.609Z,344.00
2022-10-09T05:40:06.862Z,380.00
2022-10-09T05:41:07.199Z,420.00
2022-10-09T05:42:09.379Z,464.00
2022-10-09T05:43:07.769Z,512.00
2022-10-09T05:44:08.885Z,564.00
2022-10-09T05:45:08.376Z,608.00
2022-10-09T05:46:10.587Z,648.00
2022-10-09T05:47:10.744Z,680.00
2022-10-09T05:48:10.920Z,720.00
2022-10-09T05:49:12.152Z,768.00
2022-10-09T05:50:13.325Z,824.00
2022-10-09T05:51:10.246Z,896.00
2022-10-09T05:52:12.423Z,956.00
2022-10-09T05:53:12.677Z,1012.00
2022-10-09T05:54:12.910Z,1072.00
2022-10-09T05:55:13.029Z,1124.00
2022-10-09T05:56:11.685Z,1192.00
2022-10-09T05:57:13.911Z,1276.00
2022-10-09T05:58:14.074Z,1368.00
2022-10-09T05:59:13.706Z,1432.00
2022-10-09T06:00:14.383Z,1480.00
2022-10-09T06:01:13.191Z,1552.00
2022-10-09T06:02:13.421Z,1640.00
2022-10-09T06:03:15.575Z,1736.00
2022-10-09T06:04:16.756Z,1832.00
2022-10-09T06:05:14.300Z,1976.00
2022-10-09T06:06:14.646Z,2112.00
2022-10-09T06:07:15.002Z,2252.00
2022-10-09T06:08:17.157Z,2420.00
2022-10-09T06:09:18.317Z,2524.00
2022-10-09T06:10:15.746Z,2564.00
2022-10-09T06:11:17.924Z,2624.00
2022-10-09T06:12:16.336Z,2744.00
2022-10-09T06:13:16.674Z,2884.00
2022-10-09T06:14:19.827Z,3000.00
2022-10-09T06:15:19.051Z,3004.00
2022-10-09T06:16:17.642Z,3040.00
2022-10-09T06:17:17.841Z,3112.00
2022-10-09T06:18:18.189Z,3120.00
2022-10-09T06:19:21.887Z,3124.00
2022-10-09T06:20:18.684Z,3104.00
2022-10-09T06:21:19.023Z,3068.00
2022-10-09T06:22:21.215Z,3120.00
2022-10-09T06:23:21.498Z,3204.00
2022-10-09T06:24:25.774Z,3292.00
2022-10-09T06:25:22.876Z,3324.00
2022-10-09T06:26:20.545Z,3404.00
2022-10-09T06:27:22.706Z,3464.00
2022-10-09T06:28:21.152Z,3560.00
2022-10-09T06:29:23.519Z,3712.00
2022-10-09T06:30:21.676Z,3968.00
2022-10-09T06:31:23.029Z,4168.00
2022-10-09T06:32:22.319Z,4304.00
2022-10-09T06:33:24.504Z,4444.00
2022-10-09T06:34:25.689Z,4676.00
2022-10-09T06:35:23.248Z,4928.00
2022-10-09T06:36:25.429Z,4808.00
2022-10-09T06:37:23.714Z,4732.00
2022-10-09T06:38:24.061Z,4792.00
2022-10-09T06:39:27.229Z,5076.00
2022-10-09T06:40:24.647Z,5648.00
2022-10-09T06:41:28.270Z,6276.00
2022-10-09T06:42:25.324Z,6500.00
2022-10-09T06:43:27.481Z,6272.00
2022-10-09T06:44:28.641Z,5904.00
2022-10-09T06:45:26.296Z,5124.00
2022-10-09T06:46:28.411Z,4920.00
2022-10-09T06:47:26.801Z,4884.00
2022-10-09T06:48:29.002Z,4740.00
2022-10-09T06:49:28.912Z,4704.00
2022-10-09T06:50:27.891Z,4756.00
2022-10-09T06:51:27.979Z,4856.00
2022-10-09T06:52:30.145Z,5040.00
2022-10-09T06:53:28.439Z,5268.00
2022-10-09T06:54:31.623Z,5524.00
2022-10-09T06:55:30.849Z,5812.00
2022-10-09T06:56:30.116Z,6452.00
2022-10-09T06:57:31.474Z,6772.00
2022-10-09T06:58:29.747Z,6720.00
2022-10-09T06:59:32.941Z,6376.00
2022-10-09T07:00:30.359Z,6260.00
2022-10-09T07:01:33.545Z,6652.00
2022-10-09T07:02:32.914Z,6848.00
2022-10-09T07:03:31.187Z,7572.00
2022-10-09T07:04:32.432Z,8224.00
2022-10-09T07:05:33.758Z,8608.00
2022-10-09T07:06:33.002Z,8768.00
2022-10-09T07:07:35.724Z,8392.00
2022-10-09T07:08:35.900Z,7564.00
2022-10-09T07:09:35.594Z,7068.00
2022-10-09T07:10:34.155Z,7096.00
2022-10-09T07:11:35.328Z,7308.00
2022-10-09T07:12:35.775Z,6472.00
2022-10-09T07:13:34.896Z,8200.00
2022-10-09T07:14:36.242Z,8148.00
2022-10-09T07:15:35.475Z,8208.00
2022-10-09T07:16:35.815Z,8072.00
2022-10-09T07:17:35.198Z,8092.00
2022-10-09T07:18:37.532Z,7940.00
2022-10-09T07:19:38.484Z,7704.00
2022-10-09T07:20:36.149Z,7636.00
2022-10-09T07:21:36.478Z,7708.00
2022-10-09T07:22:37.604Z,7628.00
2022-10-09T07:23:38.996Z,7644.00
2022-10-09T07:24:38.442Z,7612.00
2022-10-09T07:25:39.572Z,7188.00
2022-10-09T07:26:38.922Z,6992.00
2022-10-09T07:27:40.149Z,7340.00
2022-10-09T07:28:38.602Z,7568.00
2022-10-09T07:29:41.783Z,7668.00
2022-10-09T07:30:40.923Z,7856.00
2022-10-09T07:31:41.490Z,8084.00
2022-10-09T07:32:39.771Z,8364.00
2022-10-09T07:33:41.954Z,9020.00
2022-10-09T07:34:40.367Z,9892.00
2022-10-09T07:35:40.721Z,10356.00
2022-10-09T07:36:41.903Z,10624.00
2022-10-09T07:37:43.065Z,10988.00
2022-10-09T07:38:43.260Z,10768.00
2022-10-09T07:39:44.980Z,10692.00
2022-10-09T07:40:44.094Z,11148.00
2022-10-09T07:41:44.161Z,12392.00
2022-10-09T07:42:44.355Z,13740.00
2022-10-09T07:43:45.488Z,14392.00
2022-10-09T07:44:44.195Z,14064.00
2022-10-09T07:45:44.633Z,12808.00
2022-10-09T07:46:44.798Z,11492.00
2022-10-09T07:47:45.129Z,10188.00
2022-10-09T07:48:47.843Z,9864.00
2022-10-09T07:49:44.756Z,9616.00
2022-10-09T07:50:45.095Z,9512.00
2022-10-09T07:51:46.341Z,9312.00
2022-10-09T07:52:45.781Z,9268.00
2022-10-09T07:53:48.901Z,9016.00
2022-10-09T07:54:46.327Z,8992.00
2022-10-09T07:55:46.678Z,9060.00
2022-10-09T07:56:46.892Z,9172.00
2022-10-09T07:57:48.070Z,9212.00
2022-10-09T07:58:50.383Z,9180.00
2022-10-09T07:59:47.794Z,9524.00
2022-10-09T08:00:49.990Z,10168.00
2022-10-09T08:01:48.426Z,10144.00
2022-10-09T08:02:49.910Z,10136.00
2022-10-09T08:03:52.298Z,10184.00
2022-10-09T08:04:51.029Z,10428.00
2022-10-09T08:05:49.460Z,10572.00
2022-10-09T08:06:49.683Z,10740.00
2022-10-09T08:07:50.474Z,10868.00
2022-10-09T08:08:51.109Z,10896.00
2022-10-09T08:09:51.454Z,11140.00
2022-10-09T08:10:50.934Z,11268.00
2022-10-09T08:11:51.155Z,11060.00
2022-10-09T08:12:51.891Z,12136.00
2022-10-09T08:13:52.693Z,12448.00
2022-10-09T08:14:54.050Z,12912.00
2022-10-09T08:15:52.382Z,13856.00
2022-10-09T08:16:52.575Z,15124.00
2022-10-09T08:17:52.812Z,16708.00
2022-10-09T08:18:53.223Z,20352.00
2022-10-09T08:19:55.389Z,22784.00
2022-10-09T08:20:53.686Z,27872.00
2022-10-09T08:21:53.910Z,32832.00
2022-10-09T08:22:54.144Z,35232.00
2022-10-09T08:23:55.301Z,20128.00
2022-10-09T08:24:56.485Z,18912.00
2022-10-09T08:25:56.552Z,17536.00
2022-10-09T08:26:55.220Z,16960.00
2022-10-09T08:27:55.440Z,17056.00
2022-10-09T08:28:56.612Z,18208.00
2022-10-09T08:29:57.994Z,18336.00
2022-10-09T08:30:58.266Z,32032.00
2022-10-09T08:31:58.388Z,15628.00
2022-10-09T08:32:56.817Z,17248.00
2022-10-09T08:33:57.354Z,29728.00
2022-10-09T08:34:57.357Z,16960.00
2022-10-09T08:36:00.989Z,17120.00
2022-10-09T08:36:58.710Z,17280.00
2022-10-09T08:37:59.893Z,22784.00
2022-10-09T08:38:59.497Z,21536.00
2022-10-09T08:39:58.778Z,33024.00
2022-10-09T08:40:59.128Z,22464.00
2022-10-09T08:41:59.351Z,18080.00
2022-10-09T08:43:01.548Z,21472.00
2022-10-09T08:44:00.805Z,25472.00
2022-10-09T08:45:00.099Z,28640.00
2022-10-09T08:46:02.303Z,29280.00
2022-10-09T08:47:00.840Z,27840.00
2022-10-09T08:48:02.765Z,18336.00
2022-10-09T08:49:02.674Z,26560.00
2022-10-09T08:50:01.456Z,28160.00
2022-10-09T08:51:03.640Z,30368.00
2022-10-09T08:52:02.162Z,27680.00
2022-10-09T08:53:02.392Z,32576.00
2022-10-09T08:54:03.433Z,33568.00
2022-10-09T08:55:05.895Z,34944.00
2022-10-09T08:56:03.208Z,35552.00
2022-10-09T08:57:05.380Z,34464.00
2022-10-09T08:58:03.887Z,33568.00
2022-10-09T08:59:03.950Z,31680.00
2022-10-09T09:00:04.265Z,31104.00
2022-10-09T09:01:06.383Z,29504.00
2022-10-09T09:02:04.871Z,29184.00
2022-10-09T09:03:05.157Z,29664.00
2022-10-09T09:04:06.312Z,15488.00
2022-10-09T09:05:09.030Z,14184.00
2022-10-09T09:06:07.732Z,29536.00
2022-10-09T09:07:07.913Z,30464.00
2022-10-09T09:08:06.454Z,34080.00
2022-10-09T09:09:06.706Z,33696.00
2022-10-09T09:10:07.781Z,34368.00
2022-10-09T09:11:07.198Z,35712.00
2022-10-09T09:12:07.570Z,32032.00
2022-10-09T09:13:10.686Z,40032.00
2022-10-09T09:14:08.114Z,41056.00
2022-10-09T09:15:08.343Z,37344.00
2022-10-09T09:16:08.690Z,43584.00
2022-10-09T09:17:08.890Z,44864.00
2022-10-09T09:18:09.564Z,35136.00
2022-10-09T09:19:11.268Z,40352.00
2022-10-09T09:20:10.645Z,38496.00
2022-10-09T09:21:10.892Z,37344.00
2022-10-09T09:22:10.983Z,37344.00
2022-10-09T09:23:12.368Z,37856.00
2022-10-09T09:24:12.542Z,17084.00
2022-10-09T09:25:12.729Z,41440.00
2022-10-09T09:26:12.359Z,41120.00
2022-10-09T09:27:12.557Z,39616.00
2022-10-09T09:28:12.934Z,20800.00
2022-10-09T09:29:13.125Z,33280.00
2022-10-09T09:30:14.422Z,43040.00
2022-10-09T09:31:12.880Z,44576.00
2022-10-09T09:32:13.091Z,48736.00
2022-10-09T09:33:15.255Z,28064.00
2022-10-09T09:34:15.415Z,28512.00
2022-10-09T09:35:13.985Z,56640.00
2022-10-09T09:36:16.190Z,27616.00
2022-10-09T09:37:16.395Z,37504.00
2022-10-09T09:38:16.576Z,37696.00
2022-10-09T09:40:36.170Z,16700.00
2022-10-09T09:41:17.498Z,20704.00
2022-10-09T09:42:16.114Z,19808.00
2022-10-09T09:43:18.843Z,22688.00
2022-10-09T09:44:16.516Z,43392.00
2022-10-09T09:45:16.741Z,16992.00
2022-10-09T09:46:17.109Z,13128.00
2022-10-09T09:47:18.312Z,20448.00
2022-10-09T09:48:19.467Z,39136.00
2022-10-09T09:49:18.010Z,44064.00
2022-10-09T09:50:42.406Z,43232.00
2022-10-09T09:51:28.892Z,43360.00
2022-10-09T09:52:23.292Z,13440.00
2022-10-09T09:53:19.095Z,42880.00
2022-10-09T09:54:19.312Z,44224.00
2022-10-09T09:55:19.552Z,46784.00
2022-10-09T09:56:21.740Z,25984.00
2022-10-09T09:57:22.253Z,44064.00
2022-10-09T09:58:22.113Z,49856.00
2022-10-09T09:59:20.779Z,48800.00
2022-10-09T10:00:22.948Z,45440.00
2022-10-09T10:01:23.150Z,42144.00
2022-10-09T10:02:22.634Z,48640.00
2022-10-09T10:03:23.884Z,49728.00
2022-10-09T10:04:22.291Z,48448.00
2022-10-09T10:05:24.474Z,47744.00
2022-10-09T10:06:24.667Z,45216.00
2022-10-09T10:07:23.297Z,48032.00
2022-10-09T10:08:25.358Z,51584.00
2022-10-09T10:09:23.792Z,47744.00
2022-10-09T10:10:26.083Z,52768.00
2022-10-09T10:11:24.358Z,50912.00
2022-10-09T10:12:25.383Z,49600.00
2022-10-09T10:13:24.914Z,50656.00
2022-10-09T10:14:25.138Z,53632.00
2022-10-09T10:15:25.480Z,55296.00
2022-10-09T10:16:27.771Z,56672.00
2022-10-09T10:17:27.838Z,51968.00
2022-10-09T10:18:26.498Z,54080.00
2022-10-09T10:19:26.846Z,37408.00
2022-10-09T10:20:27.065Z,18912.00
2022-10-09T10:21:27.409Z,50016.00
2022-10-09T10:22:29.613Z,38464.00
2022-10-09T10:23:29.331Z,18080.00
2022-10-09T10:24:28.240Z,18880.00
2022-10-09T10:25:28.579Z,52992.00
2022-10-09T10:26:28.937Z,53728.00
2022-10-09T10:27:30.088Z,47616.00
2022-10-09T10:28:31.461Z,49952.00
2022-10-09T10:29:29.827Z,29376.00
2022-10-09T10:30:30.164Z,62048.00
2022-10-09T10:31:32.383Z,25984.00
2022-10-09T10:32:30.672Z,60608.00
2022-10-09T10:33:30.889Z,20480.00
2022-10-09T10:34:33.052Z,22880.00
2022-10-09T10:35:32.215Z,49888.00
2022-10-09T10:36:33.400Z,55200.00
2022-10-09T10:37:32.104Z,27456.00
2022-10-09T10:38:32.335Z,21216.00
2022-10-09T10:39:32.584Z,33408.00
2022-10-09T10:40:34.905Z,39520.00
2022-10-09T10:41:34.972Z,30688.00
2022-10-09T10:42:34.286Z,27296.00
2022-10-09T10:43:33.683Z,42592.00
2022-10-09T10:44:33.921Z,53088.00
2022-10-09T10:45:36.107Z,61152.00
2022-10-09T10:46:34.465Z,60128.00
2022-10-09T10:47:34.735Z,55584.00
2022-10-09T10:48:34.976Z,55744.00
2022-10-09T10:49:35.204Z,55104.00
2022-10-09T10:50:37.383Z,55776.00
2022-10-09T10:51:35.669Z,54304.00
2022-10-09T10:52:39.310Z,54240.00
2022-10-09T10:53:38.049Z,53792.00
2022-10-09T10:54:36.586Z,52608.00
2022-10-09T10:55:38.769Z,52224.00
2022-10-09T10:56:37.188Z,52128.00
2022-10-09T10:57:37.464Z,53504.00
2022-10-09T10:58:39.640Z,21312.00
2022-10-09T10:59:37.936Z,45280.00
2022-10-09T11:00:41.633Z,55392.00
2022-10-09T11:01:41.244Z,56896.00
2022-10-09T11:02:41.991Z,57504.00
2022-10-09T11:03:39.048Z,59520.00
2022-10-09T11:04:42.641Z,60384.00
2022-10-09T11:05:39.593Z,58592.00
2022-10-09T11:06:41.770Z,56160.00
2022-10-09T11:07:41.960Z,56512.00
2022-10-09T11:08:40.369Z,55840.00
2022-10-09T11:09:40.719Z,18688.00
2022-10-09T11:10:42.902Z,57376.00
2022-10-09T11:11:41.191Z,20448.00
2022-10-09T11:12:48.288Z,63200.00
2022-10-09T11:13:44.537Z,61920.00
2022-10-09T11:14:42.980Z,59712.00
2022-10-09T11:15:44.332Z,57344.00
2022-10-09T11:16:43.604Z,53024.00
2022-10-09T11:17:44.932Z,51200.00
2022-10-09T11:18:44.133Z,50080.00
2022-10-09T11:19:45.599Z,53152.00
2022-10-09T11:20:45.894Z,54624.00
2022-10-09T11:21:44.246Z,55136.00
2022-10-09T11:22:46.618Z,56160.00
2022-10-09T11:23:45.706Z,53984.00
2022-10-09T11:24:45.861Z,54560.00
2022-10-09T11:25:47.204Z,54848.00
2022-10-09T11:26:46.438Z,56576.00
2022-10-09T11:27:47.329Z,51744.00
2022-10-09T11:28:46.165Z,57504.00
2022-10-09T11:29:46.369Z,57184.00
2022-10-09T11:30:48.548Z,27264.00
2022-10-09T11:31:46.940Z,55296.00
2022-10-09T11:32:47.923Z,54752.00
2022-10-09T11:33:49.351Z,44832.00
2022-10-09T11:34:47.787Z,53888.00
2022-10-09T11:35:48.042Z,56160.00
2022-10-09T11:36:50.212Z,54624.00
2022-10-09T11:37:50.752Z,54368.00
2022-10-09T11:38:49.221Z,55328.00
2022-10-09T11:39:49.966Z,52864.00
2022-10-09T11:40:50.192Z,55136.00
2022-10-09T11:41:51.418Z,16040.00
2022-10-09T11:42:52.579Z,53536.00
2022-10-09T11:43:50.011Z,52160.00
2022-10-09T11:44:50.243Z,20864.00
2022-10-09T11:45:52.470Z,19488.00
2022-10-09T11:46:51.601Z,54304.00
2022-10-09T11:47:52.971Z,55872.00
2022-10-09T11:48:51.580Z,52352.00
2022-10-09T11:49:53.775Z,52896.00
2022-10-09T11:50:52.200Z,15032.00
2022-10-09T11:51:54.383Z,54144.00
2022-10-09T11:52:55.524Z,58432.00
2022-10-09T11:53:54.766Z,57408.00
2022-10-09T11:54:54.954Z,57120.00
2022-10-09T11:55:55.117Z,56000.00
2022-10-09T11:56:55.802Z,51360.00
2022-10-09T11:57:56.089Z,54656.00
2022-10-09T11:58:56.206Z,50912.00
2022-10-09T11:59:56.387Z,56384.00
2022-10-09T12:00:56.643Z,55136.00
2022-10-09T12:01:57.274Z,53824.00
2022-10-09T12:02:57.425Z,54592.00
2022-10-09T12:04:00.546Z,52192.00
2022-10-09T12:04:56.150Z,52448.00
2022-10-09T12:05:56.385Z,52672.00
2022-10-09T12:06:56.623Z,50656.00
2022-10-09T12:07:56.967Z,52096.00
2022-10-09T12:08:59.147Z,51168.00
2022-10-09T12:09:58.471Z,51040.00
2022-10-09T12:10:57.746Z,51872.00
2022-10-09T12:11:59.897Z,48928.00
2022-10-09T12:13:00.082Z,48928.00
2022-10-09T12:14:00.258Z,50880.00
2022-10-09T12:15:00.449Z,49824.00
2022-10-09T12:15:59.259Z,50176.00
2022-10-09T12:16:59.651Z,50464.00
2022-10-09T12:17:59.878Z,51968.00
2022-10-09T12:19:00.100Z,53984.00
2022-10-09T12:20:02.504Z,53600.00
2022-10-09T12:21:00.691Z,53376.00
2022-10-09T12:22:00.911Z,51904.00
2022-10-09T12:24:02.428Z,46656.00
2022-10-09T12:25:05.073Z,48672.00
2022-10-09T12:26:03.822Z,50016.00
2022-10-09T12:27:02.331Z,52576.00
2022-10-09T12:28:02.737Z,52512.00
2022-10-09T12:29:03.005Z,52096.00
2022-10-09T12:30:04.174Z,51680.00
2022-10-09T12:31:05.393Z,50976.00
2022-10-09T12:32:05.510Z,48736.00
2022-10-09T12:33:05.684Z,46880.00
2022-10-09T12:34:04.355Z,45632.00